createdAt,value
2023-04-13T00:00:20.813Z,945.4976807
2023-04-13T00:01:21.478Z,945.5159302
2023-04-13T00:02:22.273Z,945.5218506
2023-04-13T00:03:22.984Z,945.5198364
2023-04-13T00:04:24.212Z,945.5059204
2023-04-13T00:05:25.315Z,945.5048218
2023-04-13T00:06:25.996Z,945.4650269
2023-04-13T00:07:26.831Z,945.4907837
2023-04-13T00:08:27.436Z,945.4779053
2023-04-13T00:09:28.708Z,945.446228
2023-04-13T00:10:29.426Z,945.4321899
2023-04-13T00:11:30.767Z,945.4522095
2023-04-13T00:12:31.430Z,945.4414063
2023-04-13T00:13:31.993Z,945.4232788
2023-04-13T00:14:32.436Z,945.5200195
2023-04-13T00:15:33.850Z,945.4077148
2023-04-13T00:16:34.350Z,945.3884277
2023-04-13T00:17:34.972Z,945.3376465
2023-04-13T00:18:35.841Z,945.3415527
2023-04-13T00:19:36.376Z,945.4070435
2023-04-13T00:20:37.008Z,945.3377075
2023-04-13T00:21:37.637Z,945.326416
2023-04-13T00:22:39.199Z,945.2822876
2023-04-13T00:23:39.889Z,945.3442383
2023-04-13T00:24:40.553Z,945.3216553
2023-04-13T00:25:40.935Z,945.2658081
2023-04-13T00:26:42.166Z,945.2296753
2023-04-13T00:28:14.783Z,945.296936
2023-04-13T00:29:15.680Z,945.1915894
2023-04-13T00:30:16.111Z,945.2210693
2023-04-13T00:31:17.371Z,945.2471313
2023-04-13T00:32:18.082Z,945.1750488
2023-04-13T00:33:18.911Z,945.2410889
2023-04-13T00:34:19.603Z,945.2578125
2023-04-13T00:35:20.066Z,945.2438965
2023-04-13T00:36:21.456Z,945.2095947
2023-04-13T00:37:21.901Z,945.2628174
2023-04-13T00:38:22.632Z,945.2310791
2023-04-13T00:39:24.285Z,945.210083
2023-04-13T00:40:24.752Z,945.21875
2023-04-13T00:41:26.365Z,945.3164673
2023-04-13T00:42:26.918Z,945.2260742
2023-04-13T00:43:27.632Z,945.1880493
2023-04-13T00:44:28.371Z,945.1676636
2023-04-13T00:45:29.030Z,945.1870117
2023-04-13T00:46:30.497Z,945.1821289
2023-04-13T00:47:30.992Z,945.2133789
2023-04-13T00:48:31.915Z,945.2075195
2023-04-13T00:49:32.586Z,945.2483521
2023-04-13T00:50:35.053Z,945.1951294
2023-04-13T00:51:35.711Z,945.211853
2023-04-13T00:52:36.005Z,945.1826782
2023-04-13T00:53:36.805Z,945.1414185
2023-04-13T00:54:37.701Z,945.0984497
2023-04-13T00:55:38.299Z,945.092041
2023-04-13T00:56:39.557Z,945.0907593
2023-04-13T00:57:40.205Z,945.1450806
2023-04-13T00:58:41.024Z,945.1010742
2023-04-13T00:59:41.755Z,945.0828247
2023-04-13T01:00:42.586Z,945.0751343
2023-04-13T01:02:13.987Z,945.0945435
2023-04-13T01:03:14.345Z,945.0890503
2023-04-13T01:04:15.896Z,945.0891113
2023-04-13T01:05:16.584Z,945.0670166
2023-04-13T01:06:18.019Z,945.0524902
2023-04-13T01:07:18.606Z,945.0615845
2023-04-13T01:08:19.233Z,945.0293579
2023-04-13T01:09:20.788Z,945.0449829
2023-04-13T01:10:21.551Z,945.0614624
2023-04-13T01:11:22.177Z,945.072876
2023-04-13T01:12:23.750Z,945.0455322
2023-04-13T01:13:24.166Z,945.0239258
2023-04-13T01:14:25.026Z,944.9785767
2023-04-13T01:15:25.754Z,944.9877319
2023-04-13T01:16:27.214Z,944.9577637
2023-04-13T01:17:27.654Z,944.940918
2023-04-13T01:18:28.108Z,944.9529419
2023-04-13T01:19:28.820Z,944.9701538
2023-04-13T01:20:29.730Z,945.0028076
2023-04-13T01:21:31.241Z,945.008667
2023-04-13T01:22:31.954Z,945.0042114
2023-04-13T01:23:32.379Z,944.9827271
2023-04-13T01:24:33.005Z,944.9866333
2023-04-13T01:25:34.087Z,945.024231
2023-04-13T01:26:35.761Z,945.0075073
2023-04-13T01:27:36.405Z,944.9984131
2023-04-13T01:28:37.519Z,944.9375
2023-04-13T01:29:37.960Z,944.951416
2023-04-13T01:30:38.888Z,944.9692383
2023-04-13T01:31:39.736Z,944.9364014
2023-04-13T01:32:41.377Z,944.9324951
2023-04-13T01:33:41.764Z,944.8630981
2023-04-13T01:34:42.604Z,944.9536133
2023-04-13T01:36:14.786Z,944.9609985
2023-04-13T01:37:15.473Z,944.958252
2023-04-13T01:38:16.209Z,944.9405518
2023-04-13T01:39:17.699Z,944.9657593
2023-04-13T01:40:18.322Z,945.0287476
2023-04-13T01:41:19.156Z,945.0023193
2023-04-13T01:42:20.589Z,945.0184326
2023-04-13T01:43:21.106Z,945.0120239
2023-04-13T01:44:21.522Z,945.0120239
2023-04-13T01:45:21.967Z,944.972168
2023-04-13T01:46:23.294Z,944.9879761
2023-04-13T01:47:24.023Z,944.996582
2023-04-13T01:48:25.180Z,945.0111084
2023-04-13T01:49:25.929Z,945.0309448
2023-04-13T01:50:26.349Z,944.9949951
2023-04-13T01:51:27.254Z,945.0046997
2023-04-13T01:52:28.854Z,944.9783325
2023-04-13T01:53:29.505Z,944.9698486
2023-04-13T01:54:30.019Z,944.9865723
2023-04-13T01:55:30.524Z,944.9684448
2023-04-13T01:56:31.877Z,945.0092773
2023-04-13T01:57:32.685Z,944.9768677
2023-04-13T01:58:33.347Z,944.9668579
2023-04-13T01:59:33.763Z,944.9851685
2023-04-13T02:00:34.262Z,945.0115356
2023-04-13T02:01:35.002Z,944.9968872
2023-04-13T02:02:35.849Z,945.0136719
2023-04-13T02:03:36.712Z,945.0039673
2023-04-13T02:04:37.028Z,945.0084229
2023-04-13T02:05:37.516Z,945.0093994
2023-04-13T02:06:38.430Z,944.9873657
2023-04-13T02:07:39.647Z,945.0131226
2023-04-13T02:08:40.534Z,944.9798584
2023-04-13T02:09:41.041Z,945.0079956
2023-04-13T02:10:41.489Z,944.9891357
2023-04-13T02:12:12.652Z,944.9632568
2023-04-13T02:13:13.951Z,944.9348145
2023-04-13T02:14:14.786Z,944.9534912
2023-04-13T02:15:15.234Z,944.8928223
2023-04-13T02:16:16.302Z,944.9364014
2023-04-13T02:17:17.946Z,944.9234619
2023-04-13T02:18:18.726Z,944.8842773
2023-04-13T02:19:19.570Z,944.9154663
2023-04-13T02:20:19.944Z,944.9450684
2023-04-13T02:21:20.450Z,944.862793
2023-04-13T02:22:20.985Z,944.8956299
2023-04-13T02:23:21.717Z,944.9285278
2023-04-13T02:24:22.644Z,944.8768921
2023-04-13T02:25:23.218Z,944.8629761
2023-04-13T02:26:24.206Z,944.8461914
2023-04-13T02:27:24.750Z,944.8200073
2023-04-13T02:28:25.479Z,944.8393555
2023-04-13T02:29:26.266Z,944.8334351
2023-04-13T02:30:26.942Z,944.8463135
2023-04-13T02:31:27.517Z,944.8092041
2023-04-13T02:32:27.989Z,944.8029175
2023-04-13T02:33:28.570Z,944.7999878
2023-04-13T02:34:29.522Z,944.7931519
2023-04-13T02:35:30.405Z,944.7495117
2023-04-13T02:36:31.717Z,944.78302
2023-04-13T02:37:32.167Z,944.7435913
2023-04-13T02:38:32.880Z,944.6905518
2023-04-13T02:39:33.739Z,944.6523438
2023-04-13T02:40:34.465Z,944.6514893
2023-04-13T02:41:35.741Z,944.6439209
2023-04-13T02:42:36.150Z,944.6236572
2023-04-13T02:43:36.714Z,944.6343994
2023-04-13T02:44:37.742Z,944.6542358
2023-04-13T02:45:38.447Z,944.6403198
2023-04-13T02:46:40.308Z,944.6989136
2023-04-13T02:47:40.826Z,944.7380981
2023-04-13T02:48:41.672Z,944.6635132
2023-04-13T02:50:13.024Z,944.6801758
2023-04-13T02:51:13.958Z,944.6682739
2023-04-13T02:52:14.474Z,944.6785889
2023-04-13T02:53:15.017Z,944.7608032
2023-04-13T02:54:15.723Z,944.8143921
2023-04-13T02:55:16.587Z,944.7931519
2023-04-13T02:56:17.261Z,944.8036499
2023-04-13T02:57:18.423Z,944.8068848
2023-04-13T02:58:18.945Z,944.8074951
2023-04-13T02:59:20.420Z,944.7565918
2023-04-13T03:00:21.232Z,944.795166
2023-04-13T03:01:21.895Z,944.7822876
2023-04-13T03:02:22.432Z,944.8048706
2023-04-13T03:03:23.023Z,944.7929688
2023-04-13T03:04:23.412Z,944.7999878
2023-04-13T03:05:24.108Z,944.7987671
2023-04-13T03:06:24.771Z,944.7870483
2023-04-13T03:07:25.431Z,944.7693481
2023-04-13T03:08:26.005Z,944.763916
2023-04-13T03:09:26.435Z,944.8236084
2023-04-13T03:10:27.870Z,944.793335
2023-04-13T03:11:28.511Z,944.838623
2023-04-13T03:12:29.047Z,944.8563232
2023-04-13T03:13:29.547Z,944.8101807
2023-04-13T03:14:30.146Z,944.8483887
2023-04-13T03:15:30.827Z,944.864502
2023-04-13T03:16:31.396Z,944.8081055
2023-04-13T03:17:32.493Z,944.8106079
2023-04-13T03:18:32.946Z,944.786377
2023-04-13T03:19:33.440Z,944.8213501
2023-04-13T03:20:34.173Z,944.762207
2023-04-13T03:21:34.752Z,944.7870483
2023-04-13T03:22:35.466Z,944.8359985
2023-04-13T03:23:35.938Z,944.802002
2023-04-13T03:24:36.960Z,944.7719727
2023-04-13T03:25:37.670Z,944.8063965
2023-04-13T03:26:38.221Z,944.8231201
2023-04-13T03:27:39.599Z,944.855957
2023-04-13T03:28:40.126Z,944.8396606
2023-04-13T03:29:41.103Z,944.840332
2023-04-13T03:31:12.147Z,944.8408813
2023-04-13T03:32:12.718Z,944.8059082
2023-04-13T03:33:14.049Z,944.8081055
2023-04-13T03:34:14.532Z,944.8130493
2023-04-13T03:35:14.999Z,944.8591309
2023-04-13T03:36:15.605Z,944.8688965
2023-04-13T03:37:17.321Z,944.8641968
2023-04-13T03:38:17.870Z,944.8626709
2023-04-13T03:39:18.384Z,944.8664551
2023-04-13T03:40:18.870Z,944.8584595
2023-04-13T03:41:19.668Z,944.899231
2023-04-13T03:42:21.197Z,944.8986816
2023-04-13T03:43:21.836Z,944.927002
2023-04-13T03:44:22.411Z,944.9276733
2023-04-13T03:45:22.882Z,944.9351807
2023-04-13T03:46:23.538Z,944.8954468
2023-04-13T03:47:24.822Z,944.9162598
2023-04-13T03:48:25.621Z,944.9345093
2023-04-13T03:49:26.147Z,944.9732056
2023-04-13T03:50:26.575Z,944.9495239
2023-04-13T03:51:27.046Z,944.956665
2023-04-13T03:52:28.756Z,944.9840698
2023-04-13T03:53:29.619Z,945.010498
2023-04-13T03:54:30.389Z,945.0056152
2023-04-13T03:55:30.963Z,945.0301514
2023-04-13T03:56:31.612Z,945.0147095
2023-04-13T03:57:33.115Z,944.9984131
2023-04-13T03:58:33.746Z,945.0178223
2023-04-13T03:59:35.019Z,945.0349731
2023-04-13T04:00:35.528Z,945.0823364
2023-04-13T04:01:36.077Z,945.118103
2023-04-13T04:02:36.826Z,945.1370239
2023-04-13T04:03:37.591Z,945.166748
2023-04-13T04:04:38.402Z,945.1026611
2023-04-13T04:05:38.807Z,945.0914917
2023-04-13T04:06:39.332Z,945.1482544
2023-04-13T04:07:40.154Z,945.1242065
2023-04-13T04:09:12.757Z,945.1978149
2023-04-13T04:10:13.754Z,945.1195068
2023-04-13T04:11:14.255Z,945.1429443
2023-04-13T04:12:14.865Z,945.2231445
2023-04-13T04:13:15.350Z,945.2181396
2023-04-13T04:14:16.969Z,945.1565552
2023-04-13T04:15:17.582Z,945.1782837
2023-04-13T04:16:18.203Z,945.2020264
2023-04-13T04:17:18.686Z,945.1741943
2023-04-13T04:18:19.870Z,945.1837769
2023-04-13T04:19:21.298Z,945.1784668
2023-04-13T04:20:22.131Z,945.15802
2023-04-13T04:21:23.181Z,945.1950073
2023-04-13T04:22:23.616Z,945.1925049
2023-04-13T04:23:25.348Z,945.1553345
2023-04-13T04:24:26.089Z,945.199707
2023-04-13T04:25:27.029Z,945.2260742
2023-04-13T04:26:27.478Z,945.2190552
2023-04-13T04:27:29.012Z,945.1859131
2023-04-13T04:28:30.632Z,945.2327271
2023-04-13T04:29:31.339Z,945.1473389
2023-04-13T04:30:32.062Z,945.2249756
2023-04-13T04:31:34.715Z,945.1638184
2023-04-13T04:32:34.000Z,945.1482544
2023-04-13T04:33:35.198Z,945.126709
2023-04-13T04:34:36.587Z,945.1730347
2023-04-13T04:35:37.189Z,945.1504517
2023-04-13T04:36:37.676Z,945.1526489
2023-04-13T04:37:38.723Z,945.1950073
2023-04-13T04:38:39.379Z,945.2335815
2023-04-13T04:40:11.765Z,945.1938477
2023-04-13T04:41:12.248Z,945.2003784
2023-04-13T04:42:13.702Z,945.2008057
2023-04-13T04:43:14.505Z,945.2254639
2023-04-13T04:44:15.035Z,945.1674805
2023-04-13T04:45:15.675Z,945.1556396
2023-04-13T04:46:16.413Z,945.116394
2023-04-13T04:47:17.440Z,945.1062622
2023-04-13T04:48:18.970Z,945.1292114
2023-04-13T04:49:19.658Z,945.170105
2023-04-13T04:50:20.463Z,945.1115112
2023-04-13T04:51:21.142Z,945.1356812
2023-04-13T04:52:24.630Z,945.1550293
2023-04-13T04:53:23.323Z,945.2028198
2023-04-13T04:54:24.836Z,945.2053833
2023-04-13T04:55:25.515Z,945.2506104
2023-04-13T04:56:26.069Z,945.2242432
2023-04-13T04:57:29.458Z,945.2231445
2023-04-13T04:58:28.722Z,945.2495117
2023-04-13T04:59:29.503Z,945.2711182
2023-04-13T05:00:30.257Z,945.2746582
2023-04-13T05:01:30.796Z,945.2779541
2023-04-13T05:02:32.116Z,945.288208
2023-04-13T05:03:32.825Z,945.2770386
2023-04-13T05:04:34.146Z,945.2943115
2023-04-13T05:05:34.841Z,945.3253174
2023-04-13T05:06:36.213Z,945.3215332
2023-04-13T05:07:37.197Z,945.3200684
2023-04-13T05:08:37.828Z,945.328125
2023-04-13T05:09:39.171Z,945.3748169
2023-04-13T05:11:10.774Z,945.374939
2023-04-13T05:12:12.037Z,945.3554688
2023-04-13T05:13:12.527Z,945.395752
2023-04-13T05:14:43.724Z,945.4095459
2023-04-13T05:16:14.685Z,945.3538818
2023-04-13T05:17:15.196Z,945.3773193
2023-04-13T05:18:16.711Z,945.3953247
2023-04-13T05:19:17.498Z,945.3925171
2023-04-13T05:20:18.999Z,945.4431152
2023-04-13T05:21:18.881Z,945.439209
2023-04-13T05:22:20.027Z,945.4682617
2023-04-13T05:23:20.726Z,945.4821777
2023-04-13T05:24:21.454Z,945.4715576
2023-04-13T05:25:22.255Z,945.468811
2023-04-13T05:26:22.612Z,945.4967041
2023-04-13T05:27:23.967Z,945.5095215
2023-04-13T05:28:25.114Z,945.5358887
2023-04-13T05:29:26.775Z,945.5429077
2023-04-13T05:30:27.684Z,945.5116577
2023-04-13T05:31:28.214Z,945.5326538
2023-04-13T05:32:29.480Z,945.5896606
2023-04-13T05:33:30.075Z,945.552002
2023-04-13T05:34:31.764Z,945.581543
2023-04-13T05:35:32.390Z,945.5578613
2023-04-13T05:36:32.880Z,945.5616455
2023-04-13T05:37:33.956Z,945.595459
2023-04-13T05:38:35.062Z,945.6239014
2023-04-13T05:39:36.703Z,945.6018677
2023-04-13T05:40:38.158Z,945.6748657
2023-04-13T05:41:38.433Z,945.6721802
2023-04-13T05:42:39.731Z,945.7206421
2023-04-13T05:44:10.824Z,945.6831055
2023-04-13T05:45:11.674Z,945.6959229
2023-04-13T05:46:12.582Z,945.7131958
2023-04-13T05:47:13.950Z,945.678894
2023-04-13T05:48:15.186Z,945.7245483
2023-04-13T05:49:16.020Z,945.703064
2023-04-13T05:50:16.826Z,945.6885376
2023-04-13T05:51:17.586Z,945.7137451
2023-04-13T05:52:18.926Z,945.6842041
2023-04-13T05:53:21.078Z,945.711731
2023-04-13T05:54:22.762Z,945.6965332
2023-04-13T05:55:23.559Z,945.685791
2023-04-13T05:56:24.245Z,945.7316284
2023-04-13T05:57:24.675Z,945.7396851
2023-04-13T05:58:26.036Z,945.7365723
2023-04-13T05:59:27.833Z,945.7757568
2023-04-13T06:00:28.428Z,945.7209473
2023-04-13T06:01:29.642Z,945.7473145
2023-04-13T06:02:30.511Z,945.7242432
2023-04-13T06:03:31.256Z,945.7171021
2023-04-13T06:04:32.060Z,945.7181396
2023-04-13T06:05:32.462Z,945.6859131
2023-04-13T06:06:33.019Z,945.7182617
2023-04-13T06:07:34.502Z,945.6859131
2023-04-13T06:08:35.694Z,945.6834106
2023-04-13T06:09:36.672Z,945.6945801
2023-04-13T06:10:39.477Z,945.6489258
2023-04-13T06:12:11.204Z,945.6409302
2023-04-13T06:13:11.664Z,945.6972046
2023-04-13T06:14:13.527Z,945.6612549
2023-04-13T06:15:14.454Z,945.6702881
2023-04-13T06:16:15.840Z,945.6879883
2023-04-13T06:17:16.369Z,945.7153931
2023-04-13T06:18:17.435Z,945.6914063
2023-04-13T06:19:18.820Z,945.6972046
2023-04-13T06:20:19.677Z,945.7086182
2023-04-13T06:21:21.183Z,945.7493896
2023-04-13T06:22:22.473Z,945.7402954
2023-04-13T06:23:22.954Z,945.7650146
2023-04-13T06:24:23.685Z,945.7874756
2023-04-13T06:25:24.335Z,945.8100586
2023-04-13T06:26:24.930Z,945.7634888
2023-04-13T06:27:25.948Z,945.8118896
2023-04-13T06:28:27.059Z,945.7469482
2023-04-13T06:29:28.869Z,945.7352905
2023-04-13T06:30:29.488Z,945.7396851
2023-04-13T06:31:30.203Z,945.7160645
2023-04-13T06:32:31.529Z,945.6811523
2023-04-13T06:33:31.997Z,945.7203369
2023-04-13T06:34:32.839Z,945.6607666
2023-04-13T06:35:33.617Z,945.6709595
2023-04-13T06:36:34.562Z,945.6570435
2023-04-13T06:37:35.957Z,945.6704712
2023-04-13T06:38:37.198Z,945.7004395
2023-04-13T06:39:38.941Z,945.6781006
2023-04-13T06:41:10.793Z,945.6849365
2023-04-13T06:42:11.334Z,945.6688843
2023-04-13T06:43:22.639Z,945.6757813
2023-04-13T06:44:13.889Z,945.741272
2023-04-13T06:45:14.660Z,945.6951294
2023-04-13T06:46:19.106Z,945.6741943
2023-04-13T06:47:16.619Z,945.711853
2023-04-13T06:48:18.198Z,945.6963501
2023-04-13T06:49:19.404Z,945.7918701
2023-04-13T06:50:20.247Z,945.7913818
2023-04-13T06:51:21.651Z,945.831543
2023-04-13T06:52:23.013Z,945.7870483
2023-04-13T06:53:23.498Z,945.8537598
2023-04-13T06:54:24.145Z,945.7762451
2023-04-13T06:55:24.892Z,945.7945557
2023-04-13T06:56:26.276Z,945.8473511
2023-04-13T06:57:26.752Z,945.7977905
2023-04-13T06:58:28.176Z,945.8301392
2023-04-13T06:59:28.982Z,945.8650513
2023-04-13T07:00:30.659Z,945.8182983
2023-04-13T07:01:30.536Z,945.8853149
2023-04-13T07:02:31.579Z,945.8634644
2023-04-13T07:03:32.993Z,945.8198242
2023-04-13T07:05:34.234Z,945.8284302
2023-04-13T07:06:34.984Z,945.854248
2023-04-13T07:07:36.440Z,945.7451782
2023-04-13T07:08:37.710Z,945.711853
2023-04-13T07:10:09.676Z,945.6925049
2023-04-13T07:11:11.421Z,945.6532593
2023-04-13T07:12:12.068Z,945.5797119
2023-04-13T07:13:13.683Z,945.62854
2023-04-13T07:14:14.174Z,945.6004639
2023-04-13T07:15:15.397Z,945.5882568
2023-04-13T07:16:16.798Z,945.6221924
2023-04-13T07:17:18.244Z,945.5747681
2023-04-13T07:18:18.643Z,945.5222168
2023-04-13T07:19:19.973Z,945.5501709
2023-04-13T07:20:20.701Z,945.526001
2023-04-13T07:21:22.432Z,945.6565552
2023-04-13T07:22:23.194Z,945.5570068
2023-04-13T07:23:23.758Z,945.5921021
2023-04-13T07:24:25.017Z,945.5946655
2023-04-13T07:25:25.548Z,945.6017456
2023-04-13T07:26:26.182Z,945.5360718
2023-04-13T07:27:27.531Z,945.5623169
2023-04-13T07:28:28.037Z,945.5480347
2023-04-13T07:29:29.499Z,945.5318604
2023-04-13T07:30:30.195Z,945.5593262
2023-04-13T07:31:31.051Z,945.5866699
2023-04-13T07:32:32.012Z,945.5028076
2023-04-13T07:33:32.523Z,945.5699463
2023-04-13T07:34:33.976Z,945.5392456
2023-04-13T07:35:34.721Z,945.4577637
2023-04-13T07:36:36.125Z,945.4924927
2023-04-13T07:37:37.495Z,945.5237427
2023-04-13T07:39:09.304Z,945.5139771
2023-04-13T07:40:10.664Z,945.5574951
2023-04-13T07:41:11.385Z,945.5318604
2023-04-13T07:42:12.698Z,945.5371704
2023-04-13T07:43:13.692Z,945.4394531
2023-04-13T07:44:14.215Z,945.5248413
2023-04-13T07:45:14.932Z,945.4329834
2023-04-13T07:46:15.643Z,945.4876709
2023-04-13T07:47:16.762Z,945.4191895
2023-04-13T07:48:17.683Z,945.5408325
2023-04-13T07:49:18.903Z,945.4435425
2023-04-13T07:50:19.425Z,945.5080566
2023-04-13T07:51:20.201Z,945.4604492
2023-04-13T07:52:21.589Z,945.526123
2023-04-13T07:53:22.029Z,945.496582
2023-04-13T07:54:22.629Z,945.4501343
2023-04-13T07:55:23.252Z,945.4729614
2023-04-13T07:56:23.885Z,945.5287476
2023-04-13T07:57:25.026Z,945.5067139
2023-04-13T07:58:25.453Z,945.3669434
2023-04-13T07:59:26.524Z,945.440918
2023-04-13T08:00:27.000Z,945.3474121
2023-04-13T08:01:27.467Z,945.350708
2023-04-13T08:02:29.267Z,945.2609253
2023-04-13T08:03:29.666Z,945.321106
2023-04-13T08:04:30.458Z,945.2570801
2023-04-13T08:05:30.964Z,945.3151855
2023-04-13T08:06:32.207Z,945.1942139
2023-04-13T08:07:33.591Z,945.267334
2023-04-13T08:08:34.099Z,945.1834106
2023-04-13T08:09:35.534Z,945.2006226
2023-04-13T08:10:36.954Z,945.2453003
2023-04-13T08:12:09.346Z,945.2962646
2023-04-13T08:13:09.939Z,945.2769775
2023-04-13T08:14:10.909Z,945.296936
2023-04-13T08:15:11.878Z,945.2365723
2023-04-13T08:16:13.134Z,945.3259277
2023-04-13T08:17:14.235Z,945.3453369
2023-04-13T08:18:15.718Z,945.335022
2023-04-13T08:19:16.706Z,945.3098145
2023-04-13T08:20:17.197Z,945.3200073
2023-04-13T08:21:18.673Z,945.2957153
2023-04-13T08:22:20.213Z,945.2619019
2023-04-13T08:23:21.421Z,945.2628784
2023-04-13T08:24:21.927Z,945.204834
2023-04-13T08:25:22.536Z,945.2528076
2023-04-13T08:26:23.138Z,945.2079468
2023-04-13T08:27:24.516Z,945.2401733
2023-04-13T08:28:25.041Z,945.2438354
2023-04-13T08:29:27.224Z,945.3239746
2023-04-13T08:30:28.768Z,945.184082
2023-04-13T08:31:29.463Z,945.1845093
2023-04-13T08:32:30.761Z,945.2285767
2023-04-13T08:33:31.183Z,945.2189941
2023-04-13T08:34:31.624Z,945.151001
2023-04-13T08:35:32.139Z,945.1107788
2023-04-13T08:36:34.099Z,945.111145
2023-04-13T08:37:35.199Z,945.0918579
2023-04-13T08:38:37.236Z,945.0970459
2023-04-13T08:40:07.960Z,945.1120605
2023-04-13T08:41:08.408Z,945.2427979
2023-04-13T08:42:08.744Z,945.152832
2023-04-13T08:43:09.929Z,945.0665894
2023-04-13T08:44:10.401Z,945.0870361
2023-04-13T08:45:11.688Z,945.0848999
2023-04-13T08:46:12.175Z,945.0847778
2023-04-13T08:47:44.246Z,945.0672607
2023-04-13T08:49:15.763Z,945.2346802
2023-04-13T08:50:16.686Z,945.0795288
2023-04-13T08:51:17.353Z,945.0783081
2023-04-13T08:52:18.455Z,945.1320801
2023-04-13T08:53:19.432Z,945.1389771
2023-04-13T08:54:19.971Z,945.0893555
2023-04-13T08:55:20.384Z,945.1052856
2023-04-13T08:56:26.218Z,945.1003418
2023-04-13T08:57:21.969Z,945.0678101
2023-04-13T08:58:22.445Z,945.0684204
2023-04-13T08:59:22.901Z,945.0604858
2023-04-13T09:00:23.341Z,945.0548706
2023-04-13T09:01:23.836Z,945.0423584
2023-04-13T09:02:25.336Z,945.1105957
2023-04-13T09:03:26.410Z,945.069397
2023-04-13T09:04:26.876Z,945.0843506
2023-04-13T09:05:27.161Z,945.0023193
2023-04-13T09:06:27.780Z,944.9798584
2023-04-13T09:07:28.943Z,944.9743042
2023-04-13T09:08:29.497Z,944.9862671
2023-04-13T09:09:30.714Z,944.9707031
2023-04-13T09:10:32.240Z,944.8979492
2023-04-13T09:11:32.781Z,944.9147949
2023-04-13T09:12:33.938Z,944.9273682
2023-04-13T09:13:34.514Z,944.9007568
2023-04-13T09:14:35.409Z,944.8765869
2023-04-13T09:15:35.912Z,944.8840332
2023-04-13T09:16:36.884Z,944.9245605
2023-04-13T09:18:08.196Z,944.8446655
2023-04-13T09:19:09.504Z,944.9039307
2023-04-13T09:20:10.538Z,944.9840698
2023-04-13T09:21:10.992Z,944.9682617
2023-04-13T09:22:12.280Z,944.996582
2023-04-13T09:23:12.671Z,944.9949951
2023-04-13T09:24:13.138Z,945.0092773
2023-04-13T09:25:14.472Z,945.0061035
2023-04-13T09:26:15.455Z,945.0474854
2023-04-13T09:27:16.006Z,944.9978027
2023-04-13T09:28:17.276Z,945.0479736
2023-04-13T09:29:17.713Z,944.9318848
2023-04-13T09:30:19.037Z,944.9318848
2023-04-13T09:31:19.509Z,944.9481201
2023-04-13T09:32:20.803Z,944.9328613
2023-04-13T09:33:21.170Z,945.0078735
2023-04-13T09:34:22.220Z,945.010498
2023-04-13T09:35:22.762Z,944.9400024
2023-04-13T09:36:23.333Z,944.9222412
2023-04-13T09:37:24.437Z,944.90448
2023-04-13T09:38:24.834Z,944.9367065
2023-04-13T09:39:25.959Z,944.927002
2023-04-13T09:40:26.917Z,944.9335938
2023-04-13T09:41:28.198Z,945.0186157
2023-04-13T09:42:29.700Z,945.0170288
2023-04-13T09:43:30.166Z,945.0072632
2023-04-13T09:44:31.467Z,945.1234131
2023-04-13T09:45:31.960Z,945.0889282
2023-04-13T09:46:32.395Z,945.156189
2023-04-13T09:47:33.447Z,945.0828247
2023-04-13T09:48:33.951Z,945.1532593
2023-04-13T09:49:35.346Z,945.1070557
2023-04-13T09:50:36.202Z,945.1559448
2023-04-13T09:52:07.713Z,945.1975708
2023-04-13T09:53:08.185Z,945.1710815
2023-04-13T09:54:08.614Z,945.1674194
2023-04-13T09:55:10.016Z,945.1077881
2023-04-13T09:56:10.425Z,945.1016235
2023-04-13T09:57:11.592Z,945.1271362
2023-04-13T09:58:12.881Z,945.1706543
2023-04-13T09:59:14.202Z,945.111084
2023-04-13T10:00:16.597Z,945.1295166
2023-04-13T10:01:15.770Z,945.1010132
2023-04-13T10:02:16.122Z,945.0861206
2023-04-13T10:03:16.629Z,945.0484619
2023-04-13T10:04:17.699Z,945.0470581
2023-04-13T10:05:18.338Z,945.1213989
2023-04-13T10:06:18.619Z,945.0117188
2023-04-13T10:07:19.296Z,945.0934448
2023-04-13T10:08:27.250Z,945.1052856
2023-04-13T10:09:20.932Z,945.0946655
2023-04-13T10:10:21.948Z,945.1146851
2023-04-13T10:11:23.214Z,945.1512451
2023-04-13T10:12:24.221Z,945.1264038
2023-04-13T10:13:25.004Z,945.0795288
2023-04-13T10:14:25.742Z,945.0756836
2023-04-13T10:15:26.267Z,945.0983887
2023-04-13T10:16:26.694Z,945.1311035
2023-04-13T10:17:27.186Z,945.097168
2023-04-13T10:18:27.816Z,945.1159668
2023-04-13T10:19:28.029Z,945.1143188
2023-04-13T10:20:29.846Z,945.017334
2023-04-13T10:21:30.219Z,945.0718994
2023-04-13T10:22:30.710Z,944.9921265
2023-04-13T10:23:32.024Z,945.026123
2023-04-13T10:24:32.470Z,944.9692383
2023-04-13T10:25:35.245Z,945.0284424
2023-04-13T10:26:34.155Z,944.967041
2023-04-13T10:27:35.918Z,944.9759521
2023-04-13T10:29:07.240Z,945.0345459
2023-04-13T10:30:08.676Z,944.9290771
2023-04-13T10:31:09.252Z,944.9781494
2023-04-13T10:32:10.278Z,944.9196167
2023-04-13T10:33:10.729Z,944.9142456
2023-04-13T10:34:11.248Z,944.9000244
2023-04-13T10:35:11.775Z,944.947998
2023-04-13T10:36:12.228Z,944.9185791
2023-04-13T10:37:13.777Z,944.8947754
2023-04-13T10:38:15.184Z,944.9640503
2023-04-13T10:39:16.217Z,944.8963013
2023-04-13T10:40:17.688Z,944.913147
2023-04-13T10:41:19.263Z,945.0298462
2023-04-13T10:42:19.670Z,944.9900513
2023-04-13T10:43:20.935Z,944.9454956
2023-04-13T10:44:21.375Z,944.8917236
2023-04-13T10:45:22.765Z,944.8690796
2023-04-13T10:46:23.270Z,944.8590698
2023-04-13T10:47:27.459Z,944.8687744
2023-04-13T10:48:25.223Z,944.901001
2023-04-13T10:49:26.689Z,944.8579712
2023-04-13T10:50:27.140Z,944.8273315
2023-04-13T10:51:27.606Z,944.8292847
2023-04-13T10:52:28.024Z,944.7862549
2023-04-13T10:53:28.690Z,944.7927246
2023-04-13T10:54:29.119Z,944.7335815
2023-04-13T10:55:29.685Z,944.6903076
2023-04-13T10:56:31.110Z,944.7193604
2023-04-13T10:57:32.428Z,944.741394
2023-04-13T10:58:33.272Z,944.6626587
2023-04-13T10:59:39.187Z,944.6021729
2023-04-13T11:01:37.122Z,944.6721802
2023-04-13T11:03:07.222Z,944.5708008
2023-04-13T11:04:09.900Z,944.552002
2023-04-13T11:05:09.803Z,944.6350708
2023-04-13T11:06:10.243Z,944.7265625
2023-04-13T11:07:10.897Z,944.7511597
2023-04-13T11:08:12.100Z,944.6173706
2023-04-13T11:09:16.629Z,944.6190796
2023-04-13T11:10:14.834Z,944.6593628
2023-04-13T11:11:15.684Z,944.607666
2023-04-13T11:12:16.259Z,944.6785889
2023-04-13T11:13:17.601Z,944.6436768